Time;durP1;ratioP1;P1;durP2;ratioP2;P2;SDS_P1;SDS_P2;PMS_P1;PMS_P2;Temp;Humidity;BMP_temperature;BMP_pressure;BME280_temperature;BME280_humidity;BME280_pressure;Samples;Min_cycle;Max_cycle;Signal;HPM_P1;HPM_P2
2022/03/10 00:00:11;;;;;;;32.55;17.65;;;;;;;;;;4975400;28;20054;-71
2022/03/10 00:02:38;;;;;;;37.70;18.60;;;;;;;;;;4976819;28;20043;-71
2022/03/10 00:05:05;;;;;;;33.85;18.30;;;;;;;;;;4959285;28;20507;-71
2022/03/10 00:07:31;;;;;;;35.65;17.35;;;;;;;;;;4970420;28;20047;-71
2022/03/10 00:09:57;;;;;;;34.33;18.27;;;;;;;;;;4977299;28;20051;-71
2022/03/10 00:12:24;;;;;;;33.78;17.40;;;;;;;;;;4969683;28;20057;-71
2022/03/10 00:14:50;;;;;;;31.85;18.35;;;;;;;;;;4970331;28;20051;-72
2022/03/10 00:17:17;;;;;;;34.15;18.60;;;;;;;;;;4960560;28;20046;-71
2022/03/10 00:19:43;;;;;;;31.15;17.25;;;;;;;;;;4963579;28;20069;-71
2022/03/10 00:22:11;;;;;;;31.83;16.33;;;;;;;;;;4956438;28;20065;-71
2022/03/10 00:24:39;;;;;;;30.15;16.67;;;;;;;;;;4983248;28;20054;-71
2022/03/10 00:27:05;;;;;;;28.15;16.05;;;;;;;;;;4962822;28;20058;-71
2022/03/10 00:29:32;;;;;;;33.08;17.67;;;;;;;;;;4966578;28;20061;-71
2022/03/10 00:31:58;;;;;;;29.42;17.52;;;;;;;;;;4971879;28;20046;-72
2022/03/10 00:34:25;;;;;;;31.15;16.25;;;;;;;;;;4959884;28;20419;-72
2022/03/10 00:36:51;;;;;;;35.78;17.70;;;;;;;;;;4963334;28;20055;-72
2022/03/10 00:39:17;;;;;;;31.65;17.52;;;;;;;;;;4971069;28;20066;-71
2022/03/10 00:41:44;;;;;;;31.80;17.70;;;;;;;;;;4970101;28;20054;-71
2022/03/10 00:44:10;;;;;;;28.77;16.25;;;;;;;;;;4968175;28;20062;-71
2022/03/10 00:46:36;;;;;;;34.90;18.00;;;;;;;;;;4971195;28;20055;-71
2022/03/10 00:49:02;;;;;;;28.05;16.13;;;;;;;;;;4977615;28;20062;-72
2022/03/10 00:51:29;;;;;;;31.70;16.83;;;;;;;;;;4970298;28;20630;-71
2022/03/10 00:53:55;;;;;;;28.20;16.70;;;;;;;;;;4981584;28;20053;-71
2022/03/10 00:56:21;;;;;;;29.73;17.27;;;;;;;;;;4974177;28;20054;-71
2022/03/10 00:58:48;;;;;;;32.97;16.52;;;;;;;;;;4980957;28;20057;-72
2022/03/10 01:01:14;;;;;;;27.85;16.38;;;;;;;;;;4970904;28;20149;-71
2022/03/10 01:03:41;;;;;;;28.02;15.90;;;;;;;;;;4970809;28;20080;-72
2022/03/10 01:06:09;;;;;;;;;;;;;;;;;;4977179;28;20059;-72
2022/03/10 01:08:36;;;;;;;32.08;16.73;;;;;;;;;;4981942;28;19933;-71
2022/03/10 01:11:03;;;;;;;33.20;16.50;;;;;;;;;;4986023;28;20050;-72
2022/03/10 01:13:29;;;;;;;27.55;14.85;;;;;;;;;;4959514;28;20055;-72
2022/03/10 01:15:55;;;;;;;34.45;16.35;;;;;;;;;;4970183;28;20053;-71
2022/03/10 01:18:22;;;;;;;27.98;16.70;;;;;;;;;;4972988;28;20589;-71
2022/03/10 01:20:48;;;;;;;27.17;15.90;;;;;;;;;;4971809;28;20513;-72
2022/03/10 01:23:14;;;;;;;28.13;16.65;;;;;;;;;;4974559;28;20053;-71
2022/03/10 01:25:40;;;;;;;30.75;16.73;;;;;;;;;;4973457;28;20351;-71
2022/03/10 01:28:07;;;;;;;30.98;17.15;;;;;;;;;;4976402;28;20066;-71
2022/03/10 01:30:33;;;;;;;27.55;15.57;;;;;;;;;;4968239;28;20503;-72
2022/03/10 01:32:59;;;;;;;30.85;15.77;;;;;;;;;;4981480;28;20081;-71
2022/03/10 01:35:26;;;;;;;26.95;15.75;;;;;;;;;;4968107;28;20289;-72
2022/03/10 01:37:52;;;;;;;29.70;15.93;;;;;;;;;;4957460;28;20245;-72
2022/03/10 01:40:19;;;;;;;30.42;16.05;;;;;;;;;;4966439;28;20054;-72
2022/03/10 01:42:47;;;;;;;31.10;15.85;;;;;;;;;;4951992;28;20058;-71
2022/03/10 01:45:14;;;;;;;26.88;15.10;;;;;;;;;;4964992;28;20386;-72
2022/03/10 01:47:40;;;;;;;30.83;15.30;;;;;;;;;;4966697;28;20070;-71
2022/03/10 01:50:08;;;;;;;30.45;17.20;;;;;;;;;;4966840;28;20297;-71
2022/03/10 01:52:35;;;;;;;24.98;15.25;;;;;;;;;;4965773;28;20058;-72
2022/03/10 01:55:02;;;;;;;29.00;14.70;;;;;;;;;;4962803;28;20054;-72
2022/03/10 01:57:28;;;;;;;28.38;15.02;;;;;;;;;;4969305;28;20056;-71
2022/03/10 01:59:55;;;;;;;25.38;14.57;;;;;;;;;;4965413;28;20069;-72
2022/03/10 02:02:21;;;;;;;28.50;15.65;;;;;;;;;;4972851;28;20046;-72
2022/03/10 02:04:48;;;;;;;29.70;15.10;;;;;;;;;;4972023;28;20043;-73
2022/03/10 02:10:17;;;;;;;27.05;15.02;;;;;;;;;;4966769;28;20059;-72
2022/03/10 02:12:44;;;;;;;25.98;14.07;;;;;;;;;;4965264;28;20057;-72
2022/03/10 02:18:05;;;;;;;25.38;15.07;;;;;;;;;;4975308;28;20050;-72
2022/03/10 02:20:32;;;;;;;24.95;13.98;;;;;;;;;;4979099;28;20054;-72
2022/03/10 02:22:58;;;;;;;29.88;14.73;;;;;;;;;;4974256;28;20277;-72
2022/03/10 02:25:26;;;;;;;29.17;15.00;;;;;;;;;;4966219;28;20062;-72
2022/03/10 02:27:53;;;;;;;24.40;13.63;;;;;;;;;;4958101;28;20109;-72
2022/03/10 02:30:21;;;;;;;26.58;14.77;;;;;;;;;;4977633;28;20043;-72
2022/03/10 02:32:48;;;;;;;26.75;14.48;;;;;;;;;;4966999;28;20532;-72
2022/03/10 02:35:17;;;;;;;31.42;14.30;;;;;;;;;;4958416;28;20396;-72
2022/03/10 02:37:44;;;;;;;26.70;14.65;;;;;;;;;;4966019;28;20563;-73
2022/03/10 02:40:11;;;;;;;25.52;15.20;;;;;;;;;;4953652;28;20521;-72
2022/03/10 02:42:37;;;;;;;25.17;14.50;;;;;;;;;;4972017;28;20403;-72
2022/03/10 02:45:04;;;;;;;26.02;14.85;;;;;;;;;;4968231;28;20059;-72
2022/03/10 02:47:31;;;;;;;27.33;14.18;;;;;;;;;;4962933;28;20520;-72
2022/03/10 02:49:57;;;;;;;23.52;14.00;;;;;;;;;;4964727;28;20043;-72
2022/03/10 02:52:23;;;;;;;26.88;14.65;;;;;;;;;;4965474;28;20042;-72
2022/03/10 02:54:50;;;;;;;24.02;14.57;;;;;;;;;;4977701;28;20046;-72
2022/03/10 02:57:16;;;;;;;27.83;14.60;;;;;;;;;;4965822;28;20050;-72
2022/03/10 02:59:43;;;;;;;25.98;14.73;;;;;;;;;;4978620;28;20050;-72
2022/03/10 03:02:09;;;;;;;24.85;14.38;;;;;;;;;;4978760;28;20050;-72
2022/03/10 03:04:36;;;;;;;26.48;14.52;;;;;;;;;;4968716;28;20078;-72
2022/03/10 03:07:03;;;;;;;23.45;13.57;;;;;;;;;;4978217;28;20046;-72
2022/03/10 03:09:29;;;;;;;24.75;14.13;;;;;;;;;;4970995;28;20491;-72
2022/03/10 03:11:56;;;;;;;24.88;14.52;;;;;;;;;;4979773;28;20042;-72
2022/03/10 03:14:23;;;;;;;23.17;14.05;;;;;;;;;;4966731;28;20389;-72
2022/03/10 03:16:55;;;;;;;27.80;14.68;;;;;;;;;;4977982;28;20114;-72
2022/03/10 03:19:22;;;;;;;24.95;14.30;;;;;;;;;;4962060;28;20523;-72
2022/03/10 03:21:48;;;;;;;22.80;13.32;;;;;;;;;;4968680;28;20050;-72
2022/03/10 03:24:14;;;;;;;26.05;14.32;;;;;;;;;;4969835;28;20043;-72
2022/03/10 03:26:41;;;;;;;22.15;13.32;;;;;;;;;;4962859;28;20428;-72
2022/03/10 03:29:08;;;;;;;24.45;13.50;;;;;;;;;;4973280;28;20050;-72
2022/03/10 03:31:34;;;;;;;26.17;13.43;;;;;;;;;;4960220;28;20046;-72
2022/03/10 03:34:01;;;;;;;25.42;14.15;;;;;;;;;;4972758;28;20057;-72
2022/03/10 03:36:27;;;;;;;26.20;13.70;;;;;;;;;;4970037;28;20488;-72
2022/03/10 03:38:53;;;;;;;25.80;15.13;;;;;;;;;;4957296;28;20046;-72
2022/03/10 03:41:20;;;;;;;26.05;13.93;;;;;;;;;;4965938;28;20066;-72
2022/03/10 03:43:46;;;;;;;24.60;13.63;;;;;;;;;;4972728;28;20055;-72
2022/03/10 03:46:12;;;;;;;27.30;15.07;;;;;;;;;;4969928;28;20069;-72
2022/03/10 03:48:39;;;;;;;24.98;13.70;;;;;;;;;;4980471;28;20129;-72
2022/03/10 03:51:08;;;;;;;22.73;13.50;;;;;;;;;;4981191;28;20051;-71
2022/03/10 03:53:34;;;;;;;23.45;13.80;;;;;;;;;;4977964;28;20050;-71
2022/03/10 03:56:00;;;;;;;25.23;13.93;;;;;;;;;;4967480;28;20429;-71
2022/03/10 03:58:27;;;;;;;24.23;13.55;;;;;;;;;;4973455;28;20042;-71
2022/03/10 04:00:53;;;;;;;26.58;13.57;;;;;;;;;;4968741;28;20053;-71
2022/03/10 04:03:19;;;;;;;24.67;14.30;;;;;;;;;;4976403;28;20049;-71
2022/03/10 04:05:46;;;;;;;26.98;14.85;;;;;;;;;;4965671;28;20055;-71
2022/03/10 04:08:13;;;;;;;23.10;13.35;;;;;;;;;;4970697;28;20082;-69
2022/03/10 04:10:39;;;;;;;23.63;13.52;;;;;;;;;;4976910;28;20069;-70
2022/03/10 04:13:06;;;;;;;26.35;13.43;;;;;;;;;;4973921;28;20053;-71
2022/03/10 04:15:33;;;;;;;22.17;12.77;;;;;;;;;;4965959;28;20766;-69
2022/03/10 04:17:59;;;;;;;23.60;13.93;;;;;;;;;;4973775;28;20054;-70
2022/03/10 04:20:25;;;;;;;29.10;14.27;;;;;;;;;;4987487;28;20054;-70
2022/03/10 04:22:52;;;;;;;23.50;13.95;;;;;;;;;;4982239;28;20054;-72
2022/03/10 04:25:18;;;;;;;24.40;13.38;;;;;;;;;;4975311;28;20635;-71
2022/03/10 04:27:44;;;;;;;25.27;12.77;;;;;;;;;;4965195;28;20046;-72
2022/03/10 04:30:11;;;;;;;23.63;13.55;;;;;;;;;;4978978;28;20465;-71
2022/03/10 04:32:45;;;;;;;25.70;14.45;;;;;;;;;;4981018;28;20042;-71
2022/03/10 04:35:13;;;;;;;22.77;13.95;;;;;;;;;;4971762;28;20320;-71
2022/03/10 04:37:39;;;;;;;25.02;14.27;;;;;;;;;;4973059;28;20059;-73
2022/03/10 04:40:07;;;;;;;26.30;14.68;;;;;;;;;;4981064;28;20046;-73
2022/03/10 04:42:34;;;;;;;27.15;14.07;;;;;;;;;;4974917;28;20042;-72
2022/03/10 04:45:01;;;;;;;26.17;14.70;;;;;;;;;;4967683;28;20055;-71
2022/03/10 04:47:28;;;;;;;25.27;13.60;;;;;;;;;;4968134;28;20125;-71
2022/03/10 04:49:54;;;;;;;26.45;14.02;;;;;;;;;;4971081;28;20054;-69
2022/03/10 04:52:20;;;;;;;29.52;14.88;;;;;;;;;;4968821;28;20081;-70
2022/03/10 04:54:46;;;;;;;24.88;13.20;;;;;;;;;;4978905;28;20046;-69
2022/03/10 04:57:13;;;;;;;28.08;14.38;;;;;;;;;;4964934;28;20431;-69
2022/03/10 04:59:40;;;;;;;28.75;15.13;;;;;;;;;;4956183;28;20051;-71
2022/03/10 05:02:07;;;;;;;28.65;13.95;;;;;;;;;;4966661;28;20061;-70
2022/03/10 05:04:33;;;;;;;24.30;14.10;;;;;;;;;;4959645;28;20496;-71
2022/03/10 05:07:00;;;;;;;27.15;14.52;;;;;;;;;;4980841;28;20051;-71
2022/03/10 05:09:26;;;;;;;28.25;13.63;;;;;;;;;;4967891;28;20622;-70
2022/03/10 05:11:52;;;;;;;22.65;13.88;;;;;;;;;;4965334;28;20051;-70
2022/03/10 05:14:19;;;;;;;25.98;14.23;;;;;;;;;;4973838;28;20522;-71
2022/03/10 05:16:45;;;;;;;27.90;14.00;;;;;;;;;;4969984;28;20050;-71
2022/03/10 05:19:12;;;;;;;30.20;13.82;;;;;;;;;;4976008;28;20063;-71
2022/03/10 05:21:38;;;;;;;24.83;14.13;;;;;;;;;;4973087;28;20057;-71
2022/03/10 05:24:05;;;;;;;24.95;13.63;;;;;;;;;;4977986;28;20054;-70
2022/03/10 05:26:31;;;;;;;23.98;13.88;;;;;;;;;;4968982;28;20735;-70
2022/03/10 05:28:58;;;;;;;25.08;14.05;;;;;;;;;;4978076;28;20443;-71
2022/03/10 05:31:24;;;;;;;23.73;13.88;;;;;;;;;;4971283;28;20288;-70
2022/03/10 05:33:51;;;;;;;28.70;14.13;;;;;;;;;;4962410;28;20050;-70
2022/03/10 05:36:17;;;;;;;23.40;13.38;;;;;;;;;;4967280;28;20047;-70
2022/03/10 05:38:43;;;;;;;25.92;14.07;;;;;;;;;;4953558;28;20051;-71
2022/03/10 05:41:10;;;;;;;26.52;14.55;;;;;;;;;;4961313;28;20046;-70
2022/03/10 05:43:36;;;;;;;27.10;14.00;;;;;;;;;;4958754;28;20058;-71
2022/03/10 05:46:03;;;;;;;26.75;13.60;;;;;;;;;;4965545;28;20051;-70
2022/03/10 05:48:30;;;;;;;24.83;14.00;;;;;;;;;;4966704;28;20554;-71
2022/03/10 05:50:57;;;;;;;23.88;12.90;;;;;;;;;;4958141;28;20051;-71
2022/03/10 05:53:24;;;;;;;25.60;14.00;;;;;;;;;;4970970;28;20421;-71
2022/03/10 05:55:51;;;;;;;23.92;14.30;;;;;;;;;;4965306;28;20161;-71
2022/03/10 05:58:17;;;;;;;28.55;13.90;;;;;;;;;;4974011;28;20523;-71
2022/03/10 06:00:45;;;;;;;25.20;14.73;;;;;;;;;;4980217;28;20074;-71
2022/03/10 06:03:12;;;;;;;25.30;14.00;;;;;;;;;;4958674;28;20480;-72
2022/03/10 06:05:38;;;;;;;25.75;14.18;;;;;;;;;;4968972;28;20414;-71
2022/03/10 06:08:05;;;;;;;24.20;14.25;;;;;;;;;;4952671;28;20527;-71
2022/03/10 06:10:31;;;;;;;24.42;13.32;;;;;;;;;;4979754;28;20058;-72
2022/03/10 06:12:57;;;;;;;29.42;13.80;;;;;;;;;;4972013;28;20058;-71
2022/03/10 06:15:23;;;;;;;28.20;15.05;;;;;;;;;;4972274;28;20091;-71
2022/03/10 06:17:50;;;;;;;28.25;14.45;;;;;;;;;;4966202;28;20051;-71
2022/03/10 06:20:16;;;;;;;27.30;14.25;;;;;;;;;;4960266;28;20518;-71
2022/03/10 06:22:43;;;;;;;25.60;13.30;;;;;;;;;;4970347;28;20054;-71
2022/03/10 06:25:09;;;;;;;26.58;13.10;;;;;;;;;;4971980;28;20491;-71
2022/03/10 06:27:36;;;;;;;32.25;14.93;;;;;;;;;;4978847;28;20129;-71
2022/03/10 06:30:03;;;;;;;25.38;13.23;;;;;;;;;;4966322;28;20050;-71
2022/03/10 06:32:29;;;;;;;25.77;12.75;;;;;;;;;;4977593;28;20528;-70
2022/03/10 06:34:57;;;;;;;24.83;13.85;;;;;;;;;;4973334;28;20058;-70
2022/03/10 06:37:23;;;;;;;28.38;13.55;;;;;;;;;;4959608;28;20066;-70
2022/03/10 06:39:50;;;;;;;29.08;13.30;;;;;;;;;;4968596;28;20096;-71
2022/03/10 06:42:16;;;;;;;30.52;14.40;;;;;;;;;;4970202;28;20469;-70
2022/03/10 06:44:43;;;;;;;27.13;14.73;;;;;;;;;;4964955;28;20097;-71
2022/03/10 06:47:09;;;;;;;26.23;13.10;;;;;;;;;;4953043;28;20495;-70
2022/03/10 06:49:36;;;;;;;29.25;15.27;;;;;;;;;;4968000;28;20054;-70
2022/03/10 06:52:02;;;;;;;40.03;19.50;;;;;;;;;;4977822;28;20061;-71
2022/03/10 06:54:29;;;;;;;43.85;22.15;;;;;;;;;;4959530;28;20073;-71
2022/03/10 06:56:55;;;;;;;36.58;18.45;;;;;;;;;;4966342;28;20054;-70
2022/03/10 06:59:21;;;;;;;32.95;17.30;;;;;;;;;;4957501;28;20093;-71
2022/03/10 07:01:47;;;;;;;29.02;14.63;;;;;;;;;;4967842;28;20054;-71
2022/03/10 07:04:15;;;;;;;26.27;13.85;;;;;;;;;;4974243;28;20090;-71
2022/03/10 07:06:41;;;;;;;29.88;13.90;;;;;;;;;;4967215;28;20685;-70
2022/03/10 07:09:07;;;;;;;32.38;14.82;;;;;;;;;;4975454;28;20068;-71
2022/03/10 07:11:33;;;;;;;33.65;13.88;;;;;;;;;;4960093;28;20567;-70
2022/03/10 07:14:00;;;;;;;32.67;14.27;;;;;;;;;;4975857;28;20463;-71
2022/03/10 07:16:26;;;;;;;27.48;13.82;;;;;;;;;;4964694;28;20138;-71
2022/03/10 07:18:53;;;;;;;44.25;14.13;;;;;;;;;;4973903;28;20042;-71
2022/03/10 07:21:21;;;;;;;34.00;15.88;;;;;;;;;;4971871;28;20392;-71
2022/03/10 07:23:48;;;;;;;30.10;14.10;;;;;;;;;;4966634;28;20078;-71
2022/03/10 07:26:14;;;;;;;30.45;14.45;;;;;;;;;;4977919;28;20071;-70
2022/03/10 07:28:41;;;;;;;35.40;13.90;;;;;;;;;;4955255;28;20596;-70
2022/03/10 07:31:07;;;;;;;23.95;13.20;;;;;;;;;;4971787;28;20062;-70
2022/03/10 07:33:33;;;;;;;27.42;13.85;;;;;;;;;;4968480;28;20058;-71
2022/03/10 07:36:00;;;;;;;22.08;11.82;;;;;;;;;;4979946;28;20050;-71
2022/03/10 07:38:26;;;;;;;23.02;12.98;;;;;;;;;;4976375;28;20050;-71
2022/03/10 07:40:54;;;;;;;25.05;12.48;;;;;;;;;;4973678;28;20053;-71
2022/03/10 07:43:20;;;;;;;26.98;14.88;;;;;;;;;;4968064;28;20057;-71
2022/03/10 07:45:46;;;;;;;33.65;16.23;;;;;;;;;;4975796;28;20053;-71
2022/03/10 07:48:12;;;;;;;26.42;14.57;;;;;;;;;;4982578;28;20363;-71
2022/03/10 07:50:39;;;;;;;29.35;14.95;;;;;;;;;;4965150;28;20077;-71
2022/03/10 07:53:05;;;;;;;28.48;14.20;;;;;;;;;;4968882;28;20050;-71
2022/03/10 07:55:31;;;;;;;25.23;14.15;;;;;;;;;;4965245;28;20054;-71
2022/03/10 07:57:58;;;;;;;26.95;12.93;;;;;;;;;;4962996;28;20045;-71
2022/03/10 08:00:24;;;;;;;23.50;13.55;;;;;;;;;;4981069;28;20435;-71
2022/03/10 08:02:50;;;;;;;30.20;14.00;;;;;;;;;;4986303;28;20452;-71
2022/03/10 08:05:17;;;;;;;21.75;12.32;;;;;;;;;;4979906;28;20467;-71
2022/03/10 08:07:44;;;;;;;36.90;14.40;;;;;;;;;;4969547;28;20073;-71
2022/03/10 08:10:10;;;;;;;24.13;12.93;;;;;;;;;;4970555;28;20042;-71
2022/03/10 08:12:36;;;;;;;24.83;13.27;;;;;;;;;;4972906;28;20303;-71
2022/03/10 08:15:03;;;;;;;28.35;12.65;;;;;;;;;;4982625;28;20054;-71
2022/03/10 08:17:30;;;;;;;24.73;12.45;;;;;;;;;;4975156;28;20100;-71
2022/03/10 08:19:57;;;;;;;23.55;12.43;;;;;;;;;;4974608;28;20054;-71
2022/03/10 08:22:24;;;;;;;25.17;13.70;;;;;;;;;;4968029;28;20058;-71
2022/03/10 08:24:51;;;;;;;26.55;13.30;;;;;;;;;;4955956;28;20061;-71
2022/03/10 08:27:17;;;;;;;25.63;13.50;;;;;;;;;;4976268;28;20053;-71
2022/03/10 08:29:44;;;;;;;24.33;13.18;;;;;;;;;;4967560;28;20054;-71
2022/03/10 08:32:13;;;;;;;;;;;;;;;;;;4962542;28;20881;-71
2022/03/10 08:34:39;;;;;;;22.08;12.75;;;;;;;;;;4976419;28;19926;-71
2022/03/10 08:37:05;;;;;;;25.75;13.45;;;;;;;;;;4974034;28;20439;-71
2022/03/10 08:39:32;;;;;;;24.75;12.82;;;;;;;;;;4963037;28;20485;-71
2022/03/10 08:41:59;;;;;;;27.42;15.40;;;;;;;;;;4965319;28;20054;-72
2022/03/10 08:44:26;;;;;;;28.55;13.55;;;;;;;;;;4972575;28;20058;-71
2022/03/10 08:46:52;;;;;;;25.40;13.60;;;;;;;;;;4973346;28;20065;-72
2022/03/10 08:49:19;;;;;;;26.40;14.13;;;;;;;;;;4962841;28;20133;-71
2022/03/10 08:51:45;;;;;;;23.02;12.70;;;;;;;;;;4977843;28;20950;-71
2022/03/10 08:54:12;;;;;;;30.88;13.75;;;;;;;;;;4967216;28;20054;-72
2022/03/10 08:56:38;;;;;;;23.13;13.10;;;;;;;;;;4980480;28;20053;-72
2022/03/10 08:59:05;;;;;;;27.50;13.52;;;;;;;;;;4973146;28;20066;-70
2022/03/10 09:01:31;;;;;;;29.42;15.07;;;;;;;;;;4988430;28;20062;-71
2022/03/10 09:03:58;;;;;;;27.60;15.35;;;;;;;;;;4977293;28;20062;-69
2022/03/10 09:06:25;;;;;;;24.60;14.25;;;;;;;;;;4970475;28;20164;-72
2022/03/10 09:08:51;;;;;;;24.92;13.68;;;;;;;;;;4972767;28;20077;-72
2022/03/10 09:11:17;;;;;;;25.45;14.68;;;;;;;;;;4966361;28;20057;-72
2022/03/10 09:13:48;;;;;;;30.23;14.85;;;;;;;;;;4980301;28;20598;-72
2022/03/10 09:16:15;;;;;;;26.33;14.07;;;;;;;;;;4979281;28;20051;-72
2022/03/10 09:18:41;;;;;;;27.40;14.45;;;;;;;;;;4963743;28;20121;-72
2022/03/10 09:21:08;;;;;;;25.65;13.75;;;;;;;;;;4973086;28;20050;-72
2022/03/10 09:23:34;;;;;;;28.77;15.82;;;;;;;;;;4965454;28;20448;-72
2022/03/10 09:26:00;;;;;;;23.77;14.10;;;;;;;;;;4968276;28;20042;-72
2022/03/10 09:28:29;;;;;;;26.92;14.80;;;;;;;;;;4965792;28;20595;-70
2022/03/10 09:30:55;;;;;;;23.33;13.93;;;;;;;;;;4981006;28;20047;-72
2022/03/10 09:33:21;;;;;;;24.40;13.73;;;;;;;;;;4976286;28;20049;-72
2022/03/10 09:35:48;;;;;;;24.83;13.45;;;;;;;;;;4968151;28;20057;-72
2022/03/10 09:38:17;;;;;;;25.33;14.73;;;;;;;;;;4983966;28;20570;-72
2022/03/10 09:40:45;;;;;;;25.00;15.32;;;;;;;;;;4958242;28;20051;-71
2022/03/10 09:43:11;;;;;;;28.95;14.20;;;;;;;;;;4972412;28;20488;-72
2022/03/10 09:45:38;;;;;;;29.95;14.95;;;;;;;;;;4970328;28;20410;-72
2022/03/10 09:48:04;;;;;;;24.67;14.02;;;;;;;;;;4977733;28;20400;-72
2022/03/10 09:50:31;;;;;;;26.58;14.43;;;;;;;;;;4977252;28;20054;-71
2022/03/10 09:52:57;;;;;;;26.85;14.75;;;;;;;;;;4971080;28;20058;-72
2022/03/10 09:55:23;;;;;;;23.60;13.85;;;;;;;;;;4972579;28;20489;-73
2022/03/10 09:57:50;;;;;;;23.65;13.02;;;;;;;;;;4966819;28;20333;-72
2022/03/10 10:00:17;;;;;;;25.42;13.40;;;;;;;;;;4981546;28;20504;-71
2022/03/10 10:02:44;;;;;;;26.02;14.07;;;;;;;;;;4970142;28;20074;-72
2022/03/10 10:05:21;;;;;;;22.33;13.20;;;;;;;;;;4960893;28;20150;-72
2022/03/10 10:08:06;;;;;;;27.50;15.40;;;;;;;;;;4968905;28;20050;-72
2022/03/10 10:10:35;;;;;;;28.42;15.25;;;;;;;;;;4968123;28;20054;-72
2022/03/10 10:13:12;;;;;;;29.80;15.82;;;;;;;;;;4978606;28;20047;-71
2022/03/10 10:15:39;;;;;;;31.35;16.75;;;;;;;;;;4956961;28;20512;-72
2022/03/10 10:18:12;;;;;;;26.77;15.32;;;;;;;;;;4968575;28;20046;-72
2022/03/10 10:20:59;;;;;;;27.35;15.52;;;;;;;;;;4971530;28;20545;-72
2022/03/10 10:23:27;;;;;;;25.35;16.23;;;;;;;;;;4971685;28;20054;-72
2022/03/10 10:26:07;;;;;;;27.80;14.35;;;;;;;;;;4964810;28;20050;-71
2022/03/10 10:28:35;;;;;;;26.83;16.75;;;;;;;;;;4974976;28;20081;-72
2022/03/10 10:31:02;;;;;;;28.67;16.80;;;;;;;;;;4968909;28;20056;-72
2022/03/10 10:33:30;;;;;;;25.20;15.98;;;;;;;;;;4969407;28;20053;-72
2022/03/10 10:36:13;;;;;;;30.37;16.60;;;;;;;;;;4980497;28;20340;-72
2022/03/10 10:38:39;;;;;;;27.25;15.07;;;;;;;;;;4966634;28;20096;-72
2022/03/10 10:41:18;;;;;;;28.27;15.10;;;;;;;;;;4968635;28;20051;-72
2022/03/10 10:43:46;;;;;;;;;;;;;;;;;;4955546;28;20065;-70
2022/03/10 10:46:13;;;;;;;;;;;;;;;;;;4964122;28;20004;-72
2022/03/10 10:48:47;;;;;;;28.85;15.23;;;;;;;;;;4971515;28;19926;-71
2022/03/10 10:51:13;;;;;;;26.42;15.95;;;;;;;;;;4980526;28;20065;-72
2022/03/10 10:53:40;;;;;;;26.35;14.77;;;;;;;;;;4979973;28;20062;-72
2022/03/10 10:56:06;;;;;;;32.95;17.92;;;;;;;;;;4968680;28;20408;-72
2022/03/10 10:58:33;;;;;;;31.05;16.55;;;;;;;;;;4971753;28;20058;-72
2022/03/10 11:00:59;;;;;;;27.27;16.02;;;;;;;;;;4962677;28;20050;-71
2022/03/10 11:03:36;;;;;;;30.05;16.65;;;;;;;;;;4979855;28;20066;-72
2022/03/10 11:06:02;;;;;;;29.10;16.65;;;;;;;;;;4979269;28;20145;-71
2022/03/10 11:08:29;;;;;;;27.33;16.35;;;;;;;;;;4969947;28;20064;-71
2022/03/10 11:10:58;;;;;;;25.13;15.82;;;;;;;;;;4965998;28;20051;-71
2022/03/10 11:13:25;;;;;;;25.88;16.10;;;;;;;;;;4951474;28;20069;-72
2022/03/10 11:15:53;;;;;;;24.17;14.85;;;;;;;;;;4967184;28;20061;-71
2022/03/10 11:18:23;;;;;;;24.02;14.25;;;;;;;;;;4962367;28;20836;-72
2022/03/10 11:20:53;;;;;;;30.17;16.70;;;;;;;;;;4988242;28;20057;-71
2022/03/10 11:23:38;;;;;;;26.73;15.55;;;;;;;;;;4965624;28;20057;-71
2022/03/10 11:26:08;;;;;;;28.92;16.92;;;;;;;;;;4978296;28;20061;-71
2022/03/10 11:28:42;;;;;;;32.90;17.15;;;;;;;;;;4966144;28;20055;-71
2022/03/10 11:31:09;;;;;;;23.60;15.88;;;;;;;;;;4978182;28;20076;-72
2022/03/10 11:33:37;;;;;;;26.87;15.23;;;;;;;;;;4988042;28;20069;-71
2022/03/10 11:36:37;;;;;;;27.48;15.40;;;;;;;;;;4970770;28;20781;-71
2022/03/10 11:39:09;;;;;;;24.95;14.52;;;;;;;;;;4969164;28;20106;-71
2022/03/10 11:41:46;;;;;;;26.83;16.38;;;;;;;;;;4956316;28;20416;-71
2022/03/10 11:44:18;;;;;;;27.38;15.38;;;;;;;;;;4988905;28;20065;-71
2022/03/10 11:46:52;;;;;;;34.80;15.77;;;;;;;;;;4964690;28;20515;-71
2022/03/10 11:49:18;;;;;;;26.55;15.15;;;;;;;;;;4980538;28;20066;-71
2022/03/10 11:51:51;;;;;;;23.85;14.70;;;;;;;;;;4975549;28;20051;-71
2022/03/10 11:54:19;;;;;;;25.13;15.07;;;;;;;;;;4963106;28;20566;-73
2022/03/10 11:56:49;;;;;;;24.70;15.48;;;;;;;;;;4971046;28;20046;-71
2022/03/10 11:59:17;;;;;;;31.60;15.82;;;;;;;;;;4964103;28;20490;-70
2022/03/10 12:01:45;;;;;;;27.90;15.73;;;;;;;;;;4976336;28;20042;-71
2022/03/10 12:04:16;;;;;;;28.50;15.38;;;;;;;;;;4979936;28;20122;-69
2022/03/10 12:06:56;;;;;;;24.88;15.82;;;;;;;;;;4973617;28;20431;-68
2022/03/10 12:09:27;;;;;;;23.25;14.18;;;;;;;;;;4962865;28;20086;-71
2022/03/10 12:11:54;;;;;;;24.55;15.88;;;;;;;;;;4962267;28;20058;-71
2022/03/10 12:14:28;;;;;;;25.02;16.30;;;;;;;;;;4978311;28;20058;-71
2022/03/10 12:16:54;;;;;;;24.27;14.57;;;;;;;;;;4963718;28;20338;-70
2022/03/10 12:19:40;;;;;;;32.42;17.25;;;;;;;;;;4973196;28;20059;-71
2022/03/10 12:22:09;;;;;;;22.02;15.00;;;;;;;;;;4963614;28;20059;-70
2022/03/10 12:24:35;;;;;;;25.73;16.75;;;;;;;;;;4977376;28;20054;-71
2022/03/10 12:27:02;;;;;;;30.10;17.17;;;;;;;;;;4970485;28;20393;-71
2022/03/10 12:29:31;;;;;;;28.33;15.18;;;;;;;;;;4961582;28;20566;-71
2022/03/10 12:32:03;;;;;;;25.10;15.73;;;;;;;;;;4984744;28;20054;-68
2022/03/10 12:34:29;;;;;;;27.85;14.35;;;;;;;;;;4972328;28;20408;-70
2022/03/10 12:36:59;;;;;;;25.98;15.27;;;;;;;;;;4964232;28;20062;-71
2022/03/10 12:39:27;;;;;;;24.48;15.75;;;;;;;;;;4973021;28;20054;-70
2022/03/10 12:42:00;;;;;;;24.65;15.27;;;;;;;;;;4967556;28;20043;-70
2022/03/10 12:44:26;;;;;;;24.30;14.05;;;;;;;;;;4962782;28;20054;-70
2022/03/10 12:46:53;;;;;;;25.33;15.00;;;;;;;;;;4965409;28;20054;-70
2022/03/10 12:49:24;;;;;;;24.52;16.27;;;;;;;;;;4970590;28;20058;-70
2022/03/10 12:51:50;;;;;;;23.27;15.07;;;;;;;;;;4970433;28;20398;-70
2022/03/10 12:54:18;;;;;;;25.30;15.63;;;;;;;;;;4977386;28;20042;-71
2022/03/10 12:56:45;;;;;;;28.65;16.25;;;;;;;;;;4974834;28;20133;-71
2022/03/10 12:59:11;;;;;;;26.42;16.27;;;;;;;;;;4984445;28;20046;-69
2022/03/10 13:01:38;;;;;;;23.77;14.95;;;;;;;;;;4972910;28;20047;-70
2022/03/10 13:04:10;;;;;;;24.85;15.05;;;;;;;;;;4968091;28;20108;-70
2022/03/10 13:06:37;;;;;;;29.38;15.68;;;;;;;;;;4968926;28;20078;-70
2022/03/10 13:09:04;;;;;;;20.67;13.38;;;;;;;;;;4971232;28;20047;-70
2022/03/10 13:11:33;;;;;;;22.30;14.52;;;;;;;;;;4971264;28;20608;-70
2022/03/10 13:14:20;;;;;;;20.50;14.07;;;;;;;;;;4974867;28;20061;-70
2022/03/10 13:16:48;;;;;;;28.92;13.40;;;;;;;;;;4975670;28;20088;-69
2022/03/10 13:19:20;;;;;;;20.92;13.50;;;;;;;;;;4964796;28;20728;-69
2022/03/10 13:21:48;;;;;;;22.50;14.02;;;;;;;;;;4972573;28;20062;-69
2022/03/10 13:24:33;;;;;;;22.52;14.60;;;;;;;;;;4970527;28;20054;-70
2022/03/10 13:27:00;;;;;;;23.35;13.20;;;;;;;;;;4959066;28;20062;-70
2022/03/10 13:29:26;;;;;;;25.58;14.30;;;;;;;;;;4975778;28;20436;-70
2022/03/10 13:31:53;;;;;;;21.20;13.70;;;;;;;;;;4969022;28;20046;-70
2022/03/10 13:34:19;;;;;;;19.98;12.73;;;;;;;;;;4973829;28;20054;-70
2022/03/10 13:36:46;;;;;;;22.85;13.07;;;;;;;;;;4959478;28;20054;-69
2022/03/10 13:39:13;;;;;;;20.48;12.27;;;;;;;;;;4966461;28;20505;-70
2022/03/10 13:41:42;;;;;;;21.63;14.00;;;;;;;;;;4977568;28;20536;-70
2022/03/10 13:44:16;;;;;;;22.13;13.07;;;;;;;;;;4967068;28;20404;-69
2022/03/10 13:46:42;;;;;;;20.65;13.07;;;;;;;;;;4972327;28;20569;-71
2022/03/10 13:49:18;;;;;;;21.17;12.73;;;;;;;;;;4964952;28;20047;-70
2022/03/10 13:51:48;;;;;;;21.02;13.48;;;;;;;;;;4983578;28;20046;-70
2022/03/10 13:54:17;;;;;;;22.90;14.30;;;;;;;;;;4972948;28;20061;-70
2022/03/10 13:56:44;;;;;;;18.75;12.25;;;;;;;;;;4984671;28;20047;-70
2022/03/10 13:59:11;;;;;;;27.98;13.45;;;;;;;;;;4971782;28;20046;-70
2022/03/10 14:01:44;;;;;;;23.55;12.85;;;;;;;;;;4961363;28;20057;-70
2022/03/10 14:04:14;;;;;;;18.85;11.77;;;;;;;;;;4980899;28;20977;-70
2022/03/10 14:06:41;;;;;;;23.58;13.80;;;;;;;;;;4966642;28;20529;-70
2022/03/10 14:09:20;;;;;;;20.85;13.52;;;;;;;;;;4966306;28;20061;-69
2022/03/10 14:11:47;;;;;;;22.50;13.85;;;;;;;;;;4958081;28;20061;-69
2022/03/10 14:14:14;;;;;;;24.60;14.98;;;;;;;;;;4971420;28;20058;-69
2022/03/10 14:16:51;;;;;;;21.75;13.77;;;;;;;;;;4969845;28;20046;-70
2022/03/10 14:19:31;;;;;;;20.23;12.57;;;;;;;;;;4978927;28;20056;-70
2022/03/10 14:22:00;;;;;;;21.80;13.80;;;;;;;;;;4965588;28;20050;-70
2022/03/10 14:24:28;;;;;;;20.40;12.40;;;;;;;;;;4963877;28;20065;-69
2022/03/10 14:27:13;;;;;;;26.23;12.13;;;;;;;;;;4973811;28;20076;-69